createdAt,value
2023-01-04T00:01:23.709Z,7.37
2023-01-04T00:03:51.807Z,6.70
2023-01-04T00:06:20.288Z,7.53
2023-01-04T00:08:48.283Z,7.20
2023-01-04T00:11:21.241Z,5.35
2023-01-04T00:13:50.488Z,4.78
2023-01-04T00:16:23.203Z,4.87
2023-01-04T00:18:52.045Z,4.60
2023-01-04T00:21:30.840Z,5.32
2023-01-04T00:24:00.586Z,5.12
2023-01-04T00:26:30.770Z,5.05
2023-01-04T00:29:07.786Z,6.45
2023-01-04T00:31:35.910Z,7.03
2023-01-04T00:34:05.556Z,7.18
2023-01-04T00:36:33.867Z,8.40
2023-01-04T00:39:08.368Z,9.23
2023-01-04T00:44:24.276Z,8.85
2023-01-04T00:46:51.729Z,8.45
2023-01-04T00:49:19.283Z,7.93
2023-01-04T00:51:47.191Z,8.32
2023-01-04T00:54:15.905Z,7.70
2023-01-04T00:56:44.274Z,7.87
2023-01-04T00:59:17.246Z,6.87
2023-01-04T01:01:44.935Z,7.00
2023-01-04T01:04:15.563Z,6.47
2023-01-04T01:06:43.079Z,6.90
2023-01-04T01:09:10.634Z,7.00
2023-01-04T01:11:40.234Z,7.85
2023-01-04T01:14:09.337Z,7.30
2023-01-04T01:16:54.410Z,7.15
2023-01-04T01:19:22.471Z,7.03
2023-01-04T01:21:50.160Z,7.28
2023-01-04T01:24:19.162Z,6.78
2023-01-04T01:26:46.984Z,6.65
2023-01-04T01:29:14.427Z,6.35
2023-01-04T01:31:42.375Z,7.20
2023-01-04T01:34:10.233Z,6.50
2023-01-04T01:36:37.976Z,6.60
2023-01-04T01:39:06.332Z,6.50
2023-01-04T01:41:34.951Z,5.47
2023-01-04T01:44:27.713Z,6.82
2023-01-04T01:46:55.855Z,6.75
2023-01-04T01:49:30.577Z,6.93
2023-01-04T01:52:02.247Z,7.20
2023-01-04T01:54:34.632Z,6.62
2023-01-04T01:57:04.869Z,6.07
2023-01-04T01:59:34.314Z,7.30
2023-01-04T02:02:02.268Z,6.93
2023-01-04T02:04:31.042Z,7.07
2023-01-04T02:06:59.668Z,7.20
2023-01-04T02:09:27.157Z,6.50
2023-01-04T02:11:54.606Z,7.00
2023-01-04T02:14:28.537Z,7.03
2023-01-04T02:17:09.305Z,7.12
2023-01-04T02:20:04.600Z,6.45
2023-01-04T02:22:50.371Z,6.25
2023-01-04T02:25:47.070Z,7.07
2023-01-04T02:28:26.706Z,7.70
2023-01-04T02:31:12.605Z,6.85
2023-01-04T02:34:05.116Z,6.95
2023-01-04T02:36:59.570Z,6.35
2023-01-04T02:39:48.820Z,7.22
2023-01-04T02:42:22.810Z,6.65
2023-01-04T02:44:55.946Z,6.60
2023-01-04T02:47:51.425Z,6.80
2023-01-04T02:50:57.059Z,6.28
2023-01-04T02:56:19.500Z,6.75
2023-01-04T02:59:03.280Z,7.03
2023-01-04T03:02:00.678Z,6.95
2023-01-04T03:05:09.297Z,7.00
2023-01-04T03:07:57.742Z,7.10
2023-01-04T03:10:51.757Z,6.53
2023-01-04T03:13:27.827Z,7.57
2023-01-04T03:16:02.904Z,7.12
2023-01-04T03:21:01.913Z,6.85
2023-01-04T03:23:51.772Z,6.93
2023-01-04T03:27:00.941Z,7.37
2023-01-04T03:29:54.447Z,7.45
2023-01-04T03:33:02.731Z,6.30
2023-01-04T03:35:42.071Z,6.50
2023-01-04T03:38:33.736Z,7.60
2023-01-04T03:41:23.692Z,7.93
2023-01-04T03:44:17.986Z,8.13
2023-01-04T03:47:08.059Z,6.57
2023-01-04T03:49:47.861Z,6.50
2023-01-04T03:52:16.149Z,7.35
2023-01-04T03:54:46.037Z,7.35
2023-01-04T03:57:14.415Z,8.35
2023-01-04T03:59:54.231Z,7.70
2023-01-04T04:02:29.648Z,8.00
2023-01-04T04:05:16.281Z,8.40
2023-01-04T04:08:02.583Z,7.95
2023-01-04T04:10:30.332Z,8.52
2023-01-04T04:12:57.813Z,8.27
2023-01-04T04:15:25.246Z,9.02
2023-01-04T04:17:52.976Z,9.80
2023-01-04T04:20:20.374Z,8.50
2023-01-04T04:22:47.812Z,8.73
2023-01-04T04:25:15.681Z,7.85
2023-01-04T04:27:43.077Z,7.85
2023-01-04T04:30:10.645Z,8.18
2023-01-04T04:32:38.351Z,8.43
2023-01-04T04:35:06.185Z,9.20
2023-01-04T04:37:34.683Z,8.57
2023-01-04T04:40:02.440Z,9.23
2023-01-04T04:42:29.862Z,9.68
2023-01-04T04:44:57.301Z,9.60
2023-01-04T04:47:25.011Z,11.43
2023-01-04T04:49:52.432Z,11.77
2023-01-04T04:52:19.837Z,10.70
2023-01-04T04:54:47.515Z,10.52
2023-01-04T04:57:15.084Z,8.43
2023-01-04T04:59:42.503Z,8.68
2023-01-04T05:02:10.399Z,8.55
2023-01-04T05:04:37.930Z,8.02
2023-01-04T05:07:12.086Z,8.27
2023-01-04T05:09:40.104Z,8.45
2023-01-04T05:12:28.706Z,8.55
2023-01-04T05:14:56.423Z,8.00
2023-01-04T05:17:23.909Z,9.48
2023-01-04T05:19:51.346Z,8.80
2023-01-04T05:22:19.049Z,8.45
2023-01-04T05:24:46.502Z,7.50
2023-01-04T05:27:14.093Z,8.02
2023-01-04T05:30:00.482Z,7.97
2023-01-04T05:32:27.892Z,7.60
2023-01-04T05:34:55.639Z,7.35
2023-01-04T05:37:23.154Z,7.93
2023-01-04T05:39:50.586Z,7.72
2023-01-04T05:42:28.310Z,8.48
2023-01-04T05:44:57.844Z,8.02
2023-01-04T05:47:26.728Z,7.60
2023-01-04T05:49:54.236Z,8.75
2023-01-04T05:52:22.055Z,8.82
2023-01-04T05:54:49.807Z,8.55
2023-01-04T05:57:18.545Z,9.32
2023-01-04T05:59:45.994Z,8.70
2023-01-04T06:02:19.875Z,9.48
2023-01-04T06:04:51.574Z,9.03
2023-01-04T06:07:22.502Z,8.05
2023-01-04T06:09:50.255Z,7.47
2023-01-04T06:12:17.718Z,7.78
2023-01-04T06:14:45.215Z,6.82
2023-01-04T06:17:13.325Z,6.93
2023-01-04T06:19:42.956Z,6.03
2023-01-04T06:22:10.586Z,6.57
2023-01-04T06:24:38.373Z,7.18
2023-01-04T06:27:06.037Z,7.97
2023-01-04T06:29:33.741Z,7.40
2023-01-04T06:32:01.512Z,6.78
2023-01-04T06:34:31.337Z,16.10
2023-01-04T06:36:59.286Z,13.25
2023-01-04T06:39:27.085Z,11.68
2023-01-04T06:41:57.866Z,8.23
2023-01-04T06:44:29.806Z,6.72
2023-01-04T06:46:57.354Z,6.07
2023-01-04T06:49:25.213Z,6.53
2023-01-04T06:51:52.988Z,5.30
2023-01-04T06:54:20.414Z,5.60
2023-01-04T06:56:47.917Z,8.65
2023-01-04T06:59:15.786Z,9.77
2023-01-04T07:01:43.425Z,10.80
2023-01-04T07:04:11.001Z,10.38
2023-01-04T07:06:38.797Z,7.35
2023-01-04T07:09:06.228Z,6.28
2023-01-04T07:11:33.655Z,6.10
2023-01-04T07:14:01.483Z,5.25
2023-01-04T07:16:28.923Z,6.05
2023-01-04T07:18:56.467Z,5.90
2023-01-04T07:21:25.804Z,5.22
2023-01-04T07:23:53.218Z,7.03
2023-01-04T07:26:20.891Z,7.18
2023-01-04T07:29:08.012Z,7.15
2023-01-04T07:31:35.653Z,9.02
2023-01-04T07:34:03.545Z,10.60
2023-01-04T07:36:31.200Z,10.95
2023-01-04T07:39:02.128Z,12.27
2023-01-04T07:41:29.851Z,12.10
2023-01-04T07:43:57.481Z,12.05
2023-01-04T07:46:25.026Z,12.23
2023-01-04T07:48:52.711Z,11.82
2023-01-04T07:51:20.147Z,10.25
2023-01-04T07:53:47.572Z,10.55
2023-01-04T07:56:18.917Z,8.35
2023-01-04T07:58:46.723Z,7.57
2023-01-04T08:01:16.742Z,7.35
2023-01-04T08:03:46.109Z,7.90
2023-01-04T08:06:15.923Z,8.23
2023-01-04T08:08:44.145Z,8.27
2023-01-04T08:11:14.774Z,8.32
2023-01-04T08:13:42.625Z,7.87
2023-01-04T08:16:35.171Z,8.70
2023-01-04T08:19:23.380Z,8.27
2023-01-04T08:21:51.089Z,7.87
2023-01-04T08:24:19.649Z,8.00
2023-01-04T08:26:47.464Z,9.60
2023-01-04T08:29:15.331Z,9.20
2023-01-04T08:31:43.026Z,8.82
2023-01-04T08:34:10.941Z,9.77
2023-01-04T08:36:50.248Z,9.80
2023-01-04T08:39:18.153Z,10.60
2023-01-04T08:42:10.818Z,9.63
2023-01-04T08:44:40.116Z,10.10
2023-01-04T08:47:08.840Z,10.07
2023-01-04T08:49:36.308Z,10.00
2023-01-04T08:52:04.457Z,10.85
2023-01-04T08:54:32.803Z,11.77
2023-01-04T08:57:00.438Z,11.90
2023-01-04T08:59:27.855Z,12.45
2023-01-04T09:02:01.138Z,12.93
2023-01-04T09:04:32.269Z,12.98
2023-01-04T09:07:00.050Z,12.82
2023-01-04T09:09:30.099Z,12.37
2023-01-04T09:11:59.689Z,11.50
2023-01-04T09:14:28.216Z,11.98
2023-01-04T09:16:55.632Z,12.77
2023-01-04T09:19:23.481Z,11.80
2023-01-04T09:21:51.496Z,12.30
2023-01-04T09:24:19.410Z,11.10
2023-01-04T09:26:47.621Z,12.50
2023-01-04T09:29:15.525Z,11.60
2023-01-04T09:31:42.992Z,12.13
2023-01-04T09:34:15.175Z,11.80
2023-01-04T09:36:45.978Z,11.10
2023-01-04T09:39:21.542Z,11.32
2023-01-04T09:41:59.014Z,10.60
2023-01-04T09:45:22.978Z,9.88
2023-01-04T09:48:14.249Z,11.77
2023-01-04T09:50:50.235Z,9.98
2023-01-04T09:53:46.099Z,9.65
2023-01-04T09:58:45.219Z,9.95
2023-01-04T10:01:23.319Z,9.90
2023-01-04T10:04:02.230Z,9.38
2023-01-04T10:06:29.768Z,9.18
2023-01-04T10:09:02.772Z,8.40
2023-01-04T10:11:51.326Z,8.95
2023-01-04T10:14:41.135Z,9.68
2023-01-04T10:21:33.023Z,9.52
2023-01-04T10:24:06.933Z,8.80
2023-01-04T10:26:36.791Z,10.15
2023-01-04T10:29:30.035Z,12.10
2023-01-04T10:32:01.853Z,10.65
2023-01-04T10:34:38.889Z,9.65
2023-01-04T10:37:36.098Z,9.48
2023-01-04T10:40:13.307Z,8.88
2023-01-04T10:42:51.267Z,8.50
2023-01-04T10:45:27.346Z,9.20
2023-01-04T10:48:10.555Z,9.63
2023-01-04T10:50:44.107Z,9.30
2023-01-04T10:53:17.704Z,8.43
2023-01-04T10:56:24.011Z,9.68
2023-01-04T10:58:46.639Z,9.52
2023-01-04T11:01:25.443Z,9.90
2023-01-04T11:04:08.722Z,12.77
2023-01-04T11:06:44.801Z,9.23
2023-01-04T11:09:22.969Z,9.23
2023-01-04T11:11:55.463Z,11.00
2023-01-04T11:14:25.415Z,9.27
2023-01-04T11:16:56.910Z,11.00
2023-01-04T11:19:24.798Z,10.15
2023-01-04T11:22:01.621Z,8.90
2023-01-04T11:24:33.137Z,7.97
2023-01-04T11:27:15.031Z,7.18
2023-01-04T11:29:52.569Z,7.50
2023-01-04T11:32:35.392Z,7.80
2023-01-04T11:35:03.427Z,7.32
2023-01-04T11:37:33.777Z,7.50
2023-01-04T11:40:16.716Z,7.28
2023-01-04T11:42:49.741Z,6.18
2023-01-04T11:45:28.723Z,6.25
2023-01-04T11:47:58.081Z,6.32
2023-01-04T11:50:37.666Z,5.60
2023-01-04T11:53:23.915Z,6.37
2023-01-04T11:55:51.923Z,5.10
2023-01-04T11:58:20.988Z,4.32
2023-01-04T12:00:53.514Z,5.90
2023-01-04T12:03:27.593Z,5.20
2023-01-04T12:05:55.605Z,4.18
2023-01-04T12:08:30.956Z,3.22
2023-01-04T12:11:00.325Z,3.45
2023-01-04T12:13:28.919Z,2.67
2023-01-04T12:16:20.374Z,3.03
2023-01-04T12:18:48.091Z,4.62
2023-01-04T12:21:26.463Z,6.97
2023-01-04T12:23:55.094Z,6.28
2023-01-04T12:26:25.332Z,7.03
2023-01-04T12:29:24.281Z,7.12
2023-01-04T12:32:01.012Z,7.30
2023-01-04T12:34:28.674Z,5.82
2023-01-04T12:37:05.351Z,5.75
2023-01-04T12:39:44.746Z,4.87
2023-01-04T12:42:19.260Z,4.40
2023-01-04T12:44:47.121Z,4.80
2023-01-04T12:47:36.699Z,4.45
2023-01-04T12:50:09.039Z,3.45
2023-01-04T12:53:02.417Z,3.37
2023-01-04T12:55:31.019Z,2.80
2023-01-04T12:58:03.882Z,3.33
2023-01-04T13:01:05.216Z,2.90
2023-01-04T13:03:32.947Z,3.30
2023-01-04T13:06:02.726Z,4.45
2023-01-04T13:08:33.567Z,4.03
2023-01-04T13:11:04.357Z,5.87
2023-01-04T13:13:54.113Z,6.22
2023-01-04T13:16:33.647Z,5.95
2023-01-04T13:19:13.676Z,6.68
2023-01-04T13:21:43.206Z,7.55
2023-01-04T13:24:26.774Z,7.57
2023-01-04T13:26:55.366Z,8.27
2023-01-04T13:29:34.057Z,9.48
2023-01-04T13:32:03.193Z,8.30
2023-01-04T13:34:46.843Z,7.90
2023-01-04T13:37:35.407Z,6.85
2023-01-04T13:40:17.893Z,6.68
2023-01-04T13:42:48.646Z,6.95
2023-01-04T13:45:34.372Z,5.72
2023-01-04T13:48:05.380Z,6.68
2023-01-04T13:50:40.478Z,6.70
2023-01-04T13:53:21.618Z,6.72
2023-01-04T13:55:58.506Z,7.55
2023-01-04T13:58:31.203Z,7.62
2023-01-04T14:01:29.799Z,8.82
2023-01-04T14:04:02.589Z,8.65
2023-01-04T14:06:31.140Z,8.48
2023-01-04T14:09:11.624Z,9.57
2023-01-04T14:12:07.767Z,11.85
2023-01-04T14:14:48.926Z,11.50
2023-01-04T14:17:21.310Z,12.18
2023-01-04T14:19:50.759Z,13.25
2023-01-04T14:22:21.298Z,12.60
2023-01-04T14:27:41.031Z,13.18
2023-01-04T14:30:18.509Z,12.82
2023-01-04T14:33:02.694Z,13.02
2023-01-04T14:35:30.600Z,13.90
2023-01-04T14:38:06.836Z,13.35
2023-01-04T14:40:35.747Z,13.62
2023-01-04T14:43:03.537Z,14.10
2023-01-04T14:45:30.964Z,14.40
2023-01-04T14:47:58.731Z,14.57
2023-01-04T14:50:26.347Z,16.48
2023-01-04T14:52:54.517Z,16.55
2023-01-04T14:55:23.509Z,17.48
2023-01-04T14:57:51.029Z,16.90
2023-01-04T15:00:19.925Z,15.88
2023-01-04T15:02:52.196Z,15.38
2023-01-04T15:05:20.417Z,17.10
2023-01-04T15:07:48.518Z,17.92
2023-01-04T15:10:23.325Z,16.67
2023-01-04T15:12:51.202Z,17.98
2023-01-04T15:15:19.676Z,18.52
2023-01-04T15:17:47.832Z,18.12
2023-01-04T15:20:15.706Z,18.52
2023-01-04T15:22:43.932Z,20.67
2023-01-04T15:25:11.590Z,18.52
2023-01-04T15:27:42.594Z,18.40
2023-01-04T15:30:13.776Z,18.95
2023-01-04T15:32:42.015Z,18.10
2023-01-04T15:35:10.147Z,18.27
2023-01-04T15:37:38.116Z,16.75
2023-01-04T15:40:06.674Z,18.10
2023-01-04T15:42:53.056Z,17.00
2023-01-04T15:45:22.963Z,17.52
2023-01-04T15:47:51.119Z,18.15
2023-01-04T15:50:19.661Z,19.60
2023-01-04T15:52:47.423Z,21.37
2023-01-04T15:55:15.143Z,20.20
2023-01-04T15:57:44.349Z,24.50
2023-01-04T16:00:13.313Z,26.52
2023-01-04T16:02:41.434Z,21.70
2023-01-04T16:05:09.547Z,21.08
2023-01-04T16:07:36.986Z,19.00
2023-01-04T16:10:05.409Z,18.87
2023-01-04T16:12:41.711Z,21.65
2023-01-04T16:15:14.808Z,20.55
2023-01-04T16:17:43.793Z,21.20
2023-01-04T16:20:13.726Z,21.05
2023-01-04T16:22:41.555Z,19.33
2023-01-04T16:25:11.172Z,22.95
2023-01-04T16:27:40.272Z,26.08
2023-01-04T16:30:12.185Z,26.37
2023-01-04T16:32:44.069Z,27.17
2023-01-04T16:35:11.851Z,25.17
2023-01-04T16:37:39.983Z,23.92
2023-01-04T16:40:09.219Z,22.95
2023-01-04T16:42:38.024Z,24.10
2023-01-04T16:45:06.885Z,22.13
2023-01-04T16:47:42.017Z,25.25
2023-01-04T16:50:11.194Z,25.05
2023-01-04T16:52:39.721Z,24.35
2023-01-04T16:55:08.100Z,25.77
2023-01-04T16:57:36.119Z,26.08
2023-01-04T17:00:05.020Z,33.85
2023-01-04T17:02:32.687Z,42.47
2023-01-04T17:05:01.059Z,29.37
2023-01-04T17:07:33.196Z,27.13
2023-01-04T17:10:01.467Z,34.75
2023-01-04T17:18:23.741Z,26.62
2023-01-04T17:21:06.102Z,25.92
2023-01-04T17:23:45.773Z,33.78
2023-01-04T17:26:15.960Z,28.98
2023-01-04T17:28:44.404Z,31.33
2023-01-04T17:31:14.854Z,31.50
2023-01-04T17:33:43.176Z,34.15
2023-01-04T17:36:12.831Z,33.42
2023-01-04T17:38:41.247Z,38.58
2023-01-04T17:41:20.401Z,39.67
2023-01-04T17:43:50.761Z,37.97
2023-01-04T17:46:23.472Z,36.15
2023-01-04T17:49:17.748Z,34.72
2023-01-04T17:51:41.937Z,35.28
2023-01-04T17:54:11.123Z,34.40
2023-01-04T17:56:38.588Z,33.53
2023-01-04T17:59:09.143Z,32.47
2023-01-04T18:01:37.290Z,37.30
2023-01-04T18:04:06.054Z,32.13
2023-01-04T18:06:35.402Z,27.92
2023-01-04T18:09:09.068Z,31.55
2023-01-04T18:11:37.994Z,28.33
2023-01-04T18:14:09.879Z,31.10
2023-01-04T18:16:56.248Z,38.72
2023-01-04T18:19:30.052Z,47.05
2023-01-04T18:21:58.625Z,48.20
2023-01-04T18:24:42.145Z,52.85
2023-01-04T18:27:27.154Z,58.67
2023-01-04T18:29:56.711Z,54.30
2023-01-04T18:32:26.789Z,69.68
2023-01-04T18:34:55.332Z,60.63
2023-01-04T18:37:23.338Z,53.20
2023-01-04T18:39:52.021Z,59.67
2023-01-04T18:42:20.613Z,64.30
2023-01-04T18:44:49.892Z,62.58
2023-01-04T18:47:20.550Z,58.95
2023-01-04T18:49:52.364Z,53.60
2023-01-04T18:52:22.533Z,54.15
2023-01-04T18:54:54.132Z,55.08
2023-01-04T18:57:23.325Z,53.42
2023-01-04T18:59:52.142Z,52.42
2023-01-04T19:02:21.657Z,82.78
2023-01-04T19:04:50.836Z,57.38
2023-01-04T19:07:19.384Z,53.17
2023-01-04T19:09:47.937Z,44.42
2023-01-04T19:12:17.113Z,43.83
2023-01-04T19:14:45.860Z,51.83
2023-01-04T19:17:14.392Z,50.72
2023-01-04T19:19:43.891Z,40.33
2023-01-04T19:22:12.086Z,30.67
2023-01-04T19:24:42.638Z,23.85
2023-01-04T19:27:13.080Z,27.37
2023-01-04T19:29:41.425Z,24.25
2023-01-04T19:32:09.821Z,24.33
2023-01-04T19:34:39.967Z,31.25
2023-01-04T19:37:08.304Z,36.95
2023-01-04T19:39:36.976Z,31.25
2023-01-04T19:42:06.419Z,26.35
2023-01-04T19:44:35.668Z,25.65
2023-01-04T19:47:05.620Z,27.80
2023-01-04T19:49:35.958Z,23.12
2023-01-04T19:52:04.372Z,23.83
2023-01-04T19:54:33.105Z,22.37
2023-01-04T19:57:03.674Z,21.08
2023-01-04T19:59:34.591Z,18.37
2023-01-04T20:02:04.667Z,19.50
2023-01-04T20:04:34.829Z,17.15
2023-01-04T20:07:03.353Z,17.90
2023-01-04T20:09:33.606Z,14.30
2023-01-04T20:12:02.859Z,16.87
2023-01-04T20:14:33.228Z,14.15
2023-01-04T20:17:03.076Z,12.65
2023-01-04T20:19:31.607Z,11.40
2023-01-04T20:22:00.162Z,11.93
2023-01-04T20:24:29.466Z,12.10
2023-01-04T20:26:58.020Z,11.88
2023-01-04T20:29:26.838Z,12.43
2023-01-04T20:31:56.391Z,10.40
2023-01-04T20:34:24.245Z,9.82
2023-01-04T20:36:53.043Z,10.48
2023-01-04T20:39:22.567Z,10.50
2023-01-04T20:42:09.036Z,10.30
2023-01-04T20:44:38.363Z,11.75
2023-01-04T20:47:06.620Z,11.52
2023-01-04T20:49:39.547Z,12.25
2023-01-04T20:52:08.221Z,11.27
2023-01-04T20:54:36.461Z,10.25
2023-01-04T20:57:04.572Z,10.43
2023-01-04T20:59:33.214Z,10.75
2023-01-04T21:02:04.977Z,11.63
2023-01-04T21:04:33.199Z,11.55
2023-01-04T21:07:01.658Z,9.85
2023-01-04T21:09:29.469Z,11.70
2023-01-04T21:12:00.678Z,10.93
2023-01-04T21:14:33.567Z,28.27
2023-01-04T21:17:02.479Z,12.70
2023-01-04T21:19:30.234Z,10.43
2023-01-04T21:21:58.119Z,10.55
2023-01-04T21:24:26.035Z,10.27
2023-01-04T21:26:53.840Z,9.98
2023-01-04T21:29:22.051Z,13.35
2023-01-04T21:31:50.290Z,11.68
2023-01-04T21:34:22.708Z,11.80
2023-01-04T21:36:51.565Z,12.98
2023-01-04T21:39:19.286Z,14.93
2023-01-04T21:41:48.329Z,12.45
2023-01-04T21:44:16.706Z,11.15
2023-01-04T21:46:44.567Z,10.45
2023-01-04T21:49:12.730Z,10.07
2023-01-04T21:51:40.621Z,10.13
2023-01-04T21:54:08.423Z,10.75
2023-01-04T21:56:36.019Z,9.70
2023-01-04T21:59:03.805Z,9.52
2023-01-04T22:01:35.189Z,9.45
2023-01-04T22:04:04.048Z,9.20
2023-01-04T22:06:33.228Z,9.50
2023-01-04T22:09:00.927Z,11.48
2023-01-04T22:11:28.644Z,11.18
2023-01-04T22:13:56.234Z,11.65
2023-01-04T22:16:25.277Z,9.80
2023-01-04T22:18:53.311Z,9.45
2023-01-04T22:21:23.878Z,10.75
2023-01-04T22:23:51.712Z,12.70
2023-01-04T22:26:19.627Z,12.90
2023-01-04T22:28:47.275Z,11.02
2023-01-04T22:31:15.048Z,17.52
2023-01-04T22:33:43.083Z,11.35
2023-01-04T22:36:21.157Z,9.63
2023-01-04T22:38:55.190Z,10.90
2023-01-04T22:41:24.923Z,11.43
2023-01-04T22:44:00.981Z,11.85
2023-01-04T22:46:29.034Z,11.00
2023-01-04T22:48:57.320Z,8.40
2023-01-04T22:51:27.525Z,10.27
2023-01-04T22:54:00.061Z,11.57
2023-01-04T22:56:28.674Z,11.45
2023-01-04T22:58:57.302Z,10.57
2023-01-04T23:01:27.647Z,8.43
2023-01-04T23:03:57.359Z,8.15
2023-01-04T23:06:26.430Z,10.98
2023-01-04T23:08:57.897Z,9.63
2023-01-04T23:11:26.932Z,10.98
2023-01-04T23:13:54.815Z,7.72
2023-01-04T23:16:27.893Z,8.20
2023-01-04T23:19:00.435Z,7.65
2023-01-04T23:21:28.089Z,7.95
2023-01-04T23:23:55.679Z,7.72
2023-01-04T23:26:25.605Z,7.78
2023-01-04T23:28:53.049Z,8.30
2023-01-04T23:31:22.923Z,7.65
2023-01-04T23:33:59.166Z,7.12
2023-01-04T23:36:29.798Z,7.32
2023-01-04T23:38:59.851Z,7.85
2023-01-04T23:41:46.875Z,8.15
2023-01-04T23:44:20.646Z,8.00
2023-01-04T23:47:01.889Z,8.10
2023-01-04T23:49:31.141Z,10.75
2023-01-04T23:51:59.839Z,16.80
2023-01-04T23:54:28.101Z,18.50
2023-01-04T23:56:56.355Z,15.93
2023-01-04T23:59:24.400Z,17.30
